CheckWX is a tool to help pilots better visualize weather data.  It is not intended as a substitute for an official pre-flight weather briefing.

03:11:46 UTC

KBJI METAR
Bemidji Regional Airport
Bemidji, Minnesota, USA
Current

17 mins ago

KBJI 240255Z AUTO 22004KT 10SM CLR 04/M01 A3004 RMK AO2 T00401012
Observed
Mar-24 @ 02:55 UTC
Wind
  • 220° at 4 KTS
Visibility
10 SM
Flight Rules
VFR
Cloud Levels
  • Clear skies
Temperature
C / 39°F
Dewpoint
-1°C / 30°F
Humidity
70%
Altimeter
30.04" Hg
Pressure
1017.32 hPa
Previous

36 mins ago

KBJI 240236Z AUTO 23004KT 10SM CLR 05/M01 A3004 RMK AO2 T00461012
Observed
Mar-24 @ 02:36 UTC
Wind
  • 230° at 4 KTS
Visibility
10 SM
Flight Rules
VFR
Cloud Levels
  • Clear skies
Temperature
C / 41°F
Dewpoint
-1°C / 30°F
Humidity
66%
Altimeter
30.04" Hg
Pressure
1017.32 hPa
Previous

56 mins ago

KBJI 240216Z AUTO 24006KT 10SM CLR 05/M01 A3004 RMK AO2 T00501011
Observed
Mar-24 @ 02:16 UTC
Wind
  • 240° at 6 KTS
Visibility
10 SM
Flight Rules
VFR
Cloud Levels
  • Clear skies
Temperature
C / 41°F
Dewpoint
-1°C / 30°F
Humidity
66%
Altimeter
30.04" Hg
Pressure
1017.32 hPa